createdAt,value
2019-05-21T00:00:06.474Z,998.24
2019-05-21T00:01:06.385Z,998.24
2019-05-21T00:02:06.370Z,998.16
2019-05-21T00:03:07.364Z,998.15
2019-05-21T00:04:06.434Z,998.16
2019-05-21T00:05:06.326Z,998.14
2019-05-21T00:06:06.317Z,998.09
2019-05-21T00:07:06.292Z,998.09
2019-05-21T00:08:09.834Z,998.02
2019-05-21T00:09:06.277Z,997.99
2019-05-21T00:10:09.665Z,998.04
2019-05-21T00:11:06.255Z,997.97
2019-05-21T00:12:06.243Z,997.94
2019-05-21T00:13:08.886Z,998.00
2019-05-21T00:14:06.253Z,997.91
2019-05-21T00:15:06.205Z,997.97
2019-05-21T00:16:06.197Z,997.91
2019-05-21T00:17:06.218Z,997.96
2019-05-21T00:18:06.203Z,997.87
2019-05-21T00:19:06.167Z,997.90
2019-05-21T00:20:06.148Z,997.93
2019-05-21T00:21:06.162Z,997.87
2019-05-21T00:22:06.132Z,997.91
2019-05-21T00:23:07.847Z,997.76
2019-05-21T00:24:06.112Z,997.87
2019-05-21T00:25:06.119Z,997.85
2019-05-21T00:26:06.106Z,997.84
2019-05-21T00:27:06.119Z,997.74
2019-05-21T00:28:07.106Z,997.79
2019-05-21T00:29:06.079Z,997.84
2019-05-21T00:30:09.163Z,997.79
2019-05-21T00:31:06.044Z,997.84
2019-05-21T00:32:06.020Z,997.79
2019-05-21T00:33:06.078Z,997.70
2019-05-21T00:34:06.123Z,997.76
2019-05-21T00:35:05.989Z,997.78
2019-05-21T00:36:05.976Z,997.87
2019-05-21T00:37:06.006Z,997.84
2019-05-21T00:38:05.966Z,997.82
2019-05-21T00:39:05.983Z,997.77
2019-05-21T00:40:05.926Z,997.82
2019-05-21T00:41:05.940Z,997.67
2019-05-21T00:42:05.983Z,997.90
2019-05-21T00:43:05.934Z,997.86
2019-05-21T00:44:05.915Z,997.77
2019-05-21T00:45:05.964Z,997.78
2019-05-21T00:46:05.875Z,997.86
2019-05-21T00:47:05.854Z,997.84
2019-05-21T00:48:06.004Z,997.75
2019-05-21T00:49:05.954Z,997.82
2019-05-21T00:50:05.819Z,997.84
2019-05-21T00:51:05.810Z,997.78
2019-05-21T00:52:08.568Z,997.79
2019-05-21T00:53:05.787Z,997.81
2019-05-21T00:54:05.809Z,997.82
2019-05-21T00:55:05.759Z,997.86
2019-05-21T00:56:05.764Z,997.77
2019-05-21T00:57:05.769Z,997.85
2019-05-21T00:58:05.822Z,997.80
2019-05-21T00:59:05.751Z,997.77
2019-05-21T01:00:05.875Z,997.84
2019-05-21T01:01:05.740Z,997.80
2019-05-21T01:02:05.679Z,997.83
2019-05-21T01:03:05.671Z,997.84
2019-05-21T01:04:06.353Z,997.86
2019-05-21T01:05:05.653Z,997.79
2019-05-21T01:06:05.635Z,997.88
2019-05-21T01:07:05.638Z,997.97
2019-05-21T01:08:05.638Z,997.92
2019-05-21T01:09:09.390Z,997.93
2019-05-21T01:10:05.620Z,997.91
2019-05-21T01:11:05.614Z,998.04
2019-05-21T01:12:05.646Z,998.05
2019-05-21T01:13:05.606Z,998.06
2019-05-21T01:14:05.580Z,998.02
2019-05-21T01:15:05.555Z,998.06
2019-05-21T01:16:05.585Z,998.01
2019-05-21T01:17:05.520Z,998.04
2019-05-21T01:18:05.515Z,998.02
2019-05-21T01:19:07.363Z,998.09
2019-05-21T01:20:05.481Z,998.08
2019-05-21T01:21:05.494Z,998.08
2019-05-21T01:22:05.509Z,998.11
2019-05-21T01:23:05.451Z,998.02
2019-05-21T01:24:07.152Z,998.08
2019-05-21T01:25:05.529Z,998.08
2019-05-21T01:26:05.435Z,998.11
2019-05-21T01:27:05.447Z,998.03
2019-05-21T01:28:05.397Z,998.03
2019-05-21T01:29:05.409Z,998.03
2019-05-21T01:30:05.390Z,998.01
2019-05-21T01:31:05.424Z,998.14
2019-05-21T01:32:05.370Z,998.07
2019-05-21T01:33:05.351Z,998.02
2019-05-21T01:34:07.391Z,998.04
2019-05-21T01:35:16.781Z,998.04
2019-05-21T01:36:06.317Z,998.06
2019-05-21T01:37:05.319Z,997.98
2019-05-21T01:38:05.324Z,998.01
2019-05-21T01:39:05.348Z,997.97
2019-05-21T01:40:05.262Z,997.97
2019-05-21T01:41:05.378Z,998.02
2019-05-21T01:42:05.249Z,997.92
2019-05-21T01:43:05.246Z,997.98
2019-05-21T01:44:05.851Z,997.96
2019-05-21T01:45:05.210Z,997.91
2019-05-21T01:46:05.204Z,997.99
2019-05-21T01:47:05.192Z,997.87
2019-05-21T01:48:05.196Z,997.90
2019-05-21T01:49:10.364Z,997.85
2019-05-21T01:50:05.186Z,997.88
2019-05-21T01:51:05.157Z,997.95
2019-05-21T01:52:05.140Z,997.89
2019-05-21T01:53:05.130Z,997.77
2019-05-21T01:54:05.171Z,997.91
2019-05-21T01:55:05.095Z,997.88
2019-05-21T01:56:05.220Z,997.84
2019-05-21T01:57:06.188Z,997.94
2019-05-21T01:58:05.064Z,997.96
2019-05-21T01:59:05.330Z,997.98
2019-05-21T02:00:05.093Z,997.96
2019-05-21T02:01:05.036Z,998.03
2019-05-21T02:02:05.021Z,997.97
2019-05-21T02:03:05.023Z,998.02
2019-05-21T02:04:05.033Z,998.03
2019-05-21T02:05:04.994Z,998.06
2019-05-21T02:06:04.974Z,998.06
2019-05-21T02:07:04.990Z,997.99
2019-05-21T02:08:04.949Z,998.03
2019-05-21T02:09:04.942Z,998.06
2019-05-21T02:10:04.995Z,998.01
2019-05-21T02:11:04.930Z,998.07
2019-05-21T02:12:04.971Z,998.10
2019-05-21T02:13:04.895Z,998.08
2019-05-21T02:14:04.881Z,998.09
2019-05-21T02:15:05.882Z,998.13
2019-05-21T02:16:04.871Z,998.09
2019-05-21T02:17:04.860Z,998.01
2019-05-21T02:18:04.870Z,998.04
2019-05-21T02:19:04.835Z,998.12
2019-05-21T02:20:08.172Z,998.04
2019-05-21T02:21:04.915Z,998.09
2019-05-21T02:22:04.798Z,998.11
2019-05-21T02:23:04.805Z,998.15
2019-05-21T02:24:04.799Z,998.07
2019-05-21T02:25:04.798Z,998.17
2019-05-21T02:26:04.753Z,998.22
2019-05-21T02:27:04.832Z,998.23
2019-05-21T02:28:04.774Z,998.18
2019-05-21T02:29:04.736Z,998.06
2019-05-21T02:30:06.756Z,998.08
2019-05-21T02:31:04.745Z,998.18
2019-05-21T02:32:04.693Z,998.15
2019-05-21T02:33:04.674Z,998.24
2019-05-21T02:34:04.677Z,998.27
2019-05-21T02:35:04.688Z,998.29
2019-05-21T02:36:04.651Z,998.23
2019-05-21T02:37:06.333Z,998.20
2019-05-21T02:38:04.627Z,998.27
2019-05-21T02:39:04.629Z,998.28
2019-05-21T02:40:04.624Z,998.21
2019-05-21T02:41:04.590Z,998.34
2019-05-21T02:42:04.579Z,998.15
2019-05-21T02:43:04.605Z,998.22
2019-05-21T02:44:04.570Z,998.27
2019-05-21T02:45:04.563Z,998.23
2019-05-21T02:46:04.538Z,998.19
2019-05-21T02:47:04.533Z,998.22
2019-05-21T02:48:04.571Z,998.29
2019-05-21T02:49:04.516Z,998.15
2019-05-21T02:50:04.537Z,998.17
2019-05-21T02:51:04.489Z,998.24
2019-05-21T02:52:04.478Z,998.25
2019-05-21T02:53:04.508Z,998.18
2019-05-21T02:54:04.470Z,998.27
2019-05-21T02:55:04.466Z,998.21
2019-05-21T02:56:04.434Z,998.26
2019-05-21T02:57:04.462Z,998.18
2019-05-21T02:58:04.495Z,998.25
2019-05-21T02:59:04.395Z,998.26
2019-05-21T03:00:06.395Z,998.28
2019-05-21T03:01:04.370Z,998.30
2019-05-21T03:02:04.405Z,998.40
2019-05-21T03:03:04.382Z,998.31
2019-05-21T03:04:06.149Z,998.39
2019-05-21T03:05:04.363Z,998.38
2019-05-21T03:06:13.724Z,998.39
2019-05-21T03:07:05.296Z,998.46
2019-05-21T03:08:04.307Z,998.47
2019-05-21T03:09:04.282Z,998.47
2019-05-21T03:10:04.297Z,998.35
2019-05-21T03:11:04.269Z,998.40
2019-05-21T03:12:04.251Z,998.30
2019-05-21T03:13:04.232Z,998.37
2019-05-21T03:14:04.286Z,998.40
2019-05-21T03:15:04.875Z,998.35
2019-05-21T03:16:04.214Z,998.29
2019-05-21T03:17:04.198Z,998.34
2019-05-21T03:18:04.206Z,998.36
2019-05-21T03:19:04.171Z,998.34
2019-05-21T03:20:04.201Z,998.39
2019-05-21T03:21:04.235Z,998.51
2019-05-21T03:22:04.169Z,998.47
2019-05-21T03:23:04.123Z,998.51
2019-05-21T03:24:04.118Z,998.53
2019-05-21T03:25:04.144Z,998.49
2019-05-21T03:26:04.153Z,998.54
2019-05-21T03:27:04.078Z,998.44
2019-05-21T03:28:04.119Z,998.57
2019-05-21T03:29:04.089Z,998.55
2019-05-21T03:30:04.916Z,998.57
2019-05-21T03:31:04.033Z,998.57
2019-05-21T03:32:04.026Z,998.55
2019-05-21T03:33:04.014Z,998.57
2019-05-21T03:34:04.044Z,998.60
2019-05-21T03:35:04.021Z,998.52
2019-05-21T03:36:03.981Z,998.57
2019-05-21T03:37:03.964Z,998.59
2019-05-21T03:38:03.962Z,998.56
2019-05-21T03:39:05.009Z,998.54
2019-05-21T03:40:03.947Z,998.59
2019-05-21T03:41:03.931Z,998.58
2019-05-21T03:42:03.917Z,998.47
2019-05-21T03:43:03.911Z,998.51
2019-05-21T03:44:03.904Z,998.57
2019-05-21T03:45:07.508Z,998.55
2019-05-21T03:46:03.909Z,998.63
2019-05-21T03:47:03.860Z,998.47
2019-05-21T03:48:03.851Z,998.52
2019-05-21T03:49:03.881Z,998.56
2019-05-21T03:50:03.867Z,998.58
2019-05-21T03:51:03.844Z,998.56
2019-05-21T03:52:03.797Z,998.59
2019-05-21T03:53:03.785Z,998.65
2019-05-21T03:54:03.790Z,998.66
2019-05-21T03:55:03.818Z,998.55
2019-05-21T03:56:04.823Z,998.71
2019-05-21T03:57:03.761Z,998.57
2019-05-21T03:58:03.792Z,998.52
2019-05-21T03:59:03.721Z,998.59
2019-05-21T04:00:05.394Z,998.61
2019-05-21T04:01:03.703Z,998.66
2019-05-21T04:02:03.744Z,998.63
2019-05-21T04:03:03.685Z,998.67
2019-05-21T04:04:03.662Z,998.66
2019-05-21T04:05:03.696Z,998.65
2019-05-21T04:06:03.728Z,998.52
2019-05-21T04:07:03.637Z,998.62
2019-05-21T04:08:03.644Z,998.59
2019-05-21T04:09:03.622Z,998.61
2019-05-21T04:10:03.627Z,998.53
2019-05-21T04:11:03.593Z,998.56
2019-05-21T04:12:03.592Z,998.64
2019-05-21T04:13:03.571Z,998.54
2019-05-21T04:14:03.596Z,998.52
2019-05-21T04:15:03.622Z,998.65
2019-05-21T04:16:03.561Z,998.64
2019-05-21T04:17:03.598Z,998.62
2019-05-21T04:18:03.516Z,998.63
2019-05-21T04:19:03.502Z,998.64
2019-05-21T04:20:03.514Z,998.60
2019-05-21T04:21:03.496Z,998.72
2019-05-21T04:22:03.503Z,998.70
2019-05-21T04:23:03.465Z,998.65
2019-05-21T04:24:03.442Z,998.73
2019-05-21T04:25:03.491Z,998.59
2019-05-21T04:26:03.467Z,998.75
2019-05-21T04:27:03.422Z,998.65
2019-05-21T04:28:03.427Z,998.72
2019-05-21T04:29:03.407Z,998.72
2019-05-21T04:30:03.456Z,998.70
2019-05-21T04:31:03.397Z,998.77
2019-05-21T04:32:03.459Z,998.65
2019-05-21T04:33:03.363Z,998.69
2019-05-21T04:34:03.347Z,998.69
2019-05-21T04:35:03.361Z,998.71
2019-05-21T04:36:03.313Z,998.70
2019-05-21T04:37:10.932Z,998.69
2019-05-21T04:38:04.335Z,998.76
2019-05-21T04:39:03.289Z,998.61
2019-05-21T04:40:03.357Z,998.82
2019-05-21T04:41:03.295Z,998.76
2019-05-21T04:42:03.343Z,998.71
2019-05-21T04:43:03.249Z,998.81
2019-05-21T04:44:03.235Z,998.77
2019-05-21T04:45:03.267Z,998.77
2019-05-21T04:46:03.346Z,998.76
2019-05-21T04:47:03.235Z,998.80
2019-05-21T04:48:03.184Z,998.72
2019-05-21T04:49:03.159Z,998.74
2019-05-21T04:50:03.180Z,998.78
2019-05-21T04:51:03.149Z,998.84
2019-05-21T04:52:03.161Z,998.76
2019-05-21T04:53:03.196Z,998.74
2019-05-21T04:54:03.142Z,998.69
2019-05-21T04:55:03.920Z,998.79
2019-05-21T04:56:03.103Z,998.88
2019-05-21T04:57:03.095Z,998.78
2019-05-21T04:58:03.075Z,998.79
2019-05-21T04:59:03.054Z,998.78
2019-05-21T05:00:03.068Z,998.76
2019-05-21T05:01:03.059Z,998.72
2019-05-21T05:02:03.014Z,998.76
2019-05-21T05:03:03.008Z,998.74
2019-05-21T05:04:03.018Z,998.70
2019-05-21T05:05:03.057Z,998.76
2019-05-21T05:06:02.988Z,998.58
2019-05-21T05:07:03.117Z,998.63
2019-05-21T05:08:02.961Z,998.50
2019-05-21T05:09:03.014Z,998.70
2019-05-21T05:10:04.898Z,998.75
2019-05-21T05:11:02.924Z,998.71
2019-05-21T05:12:02.907Z,998.72
2019-05-21T05:13:02.905Z,998.67
2019-05-21T05:14:02.904Z,998.77
2019-05-21T05:15:02.913Z,998.69
2019-05-21T05:16:04.267Z,998.75
2019-05-21T05:17:02.859Z,998.75
2019-05-21T05:18:02.879Z,998.73
2019-05-21T05:19:02.894Z,998.85
2019-05-21T05:20:02.829Z,998.87
2019-05-21T05:21:02.863Z,998.87
2019-05-21T05:22:02.815Z,998.84
2019-05-21T05:23:02.816Z,998.95
2019-05-21T05:24:02.778Z,998.96
2019-05-21T05:25:02.789Z,998.98
2019-05-21T05:26:03.456Z,998.99
2019-05-21T05:27:02.737Z,999.02
2019-05-21T05:28:02.740Z,998.91
2019-05-21T05:29:02.754Z,998.98
2019-05-21T05:30:02.790Z,998.98
2019-05-21T05:31:02.727Z,999.05
2019-05-21T05:32:02.693Z,999.05
2019-05-21T05:33:02.674Z,999.13
2019-05-21T05:34:02.666Z,999.14
2019-05-21T05:35:02.663Z,998.97
2019-05-21T05:36:02.680Z,999.11
2019-05-21T05:37:02.700Z,999.07
2019-05-21T05:38:02.630Z,999.07
2019-05-21T05:39:02.613Z,999.12
2019-05-21T05:40:02.623Z,999.17
2019-05-21T05:41:02.614Z,999.11
2019-05-21T05:42:02.585Z,998.96
2019-05-21T05:43:02.626Z,999.21
2019-05-21T05:44:02.587Z,999.22
2019-05-21T05:45:02.542Z,999.19
2019-05-21T05:46:02.586Z,999.27
2019-05-21T05:47:02.580Z,999.24
2019-05-21T05:48:02.580Z,999.31
2019-05-21T05:49:02.582Z,999.18
2019-05-21T05:50:02.505Z,999.29
2019-05-21T05:51:02.540Z,999.34
2019-05-21T05:52:02.466Z,999.37
2019-05-21T05:53:02.459Z,999.39
2019-05-21T05:54:02.509Z,999.35
2019-05-21T05:55:02.433Z,999.34
2019-05-21T05:56:02.539Z,999.33
2019-05-21T05:57:02.423Z,999.32
2019-05-21T05:58:02.463Z,999.31
2019-05-21T05:59:02.398Z,999.32
2019-05-21T06:00:02.393Z,999.35
2019-05-21T06:01:02.410Z,999.41
2019-05-21T06:02:02.363Z,999.45
2019-05-21T06:03:02.382Z,999.46
2019-05-21T06:04:02.376Z,999.47
2019-05-21T06:05:02.406Z,999.45
2019-05-21T06:06:03.088Z,999.41
2019-05-21T06:07:04.262Z,999.51
2019-05-21T06:08:02.652Z,999.48
2019-05-21T06:09:02.424Z,999.49
2019-05-21T06:10:02.621Z,999.54
2019-05-21T06:11:02.996Z,999.47
2019-05-21T06:12:03.325Z,999.47
2019-05-21T06:13:02.546Z,999.53
2019-05-21T06:14:02.342Z,999.52
2019-05-21T06:15:02.712Z,999.54
2019-05-21T06:16:02.632Z,999.49
2019-05-21T06:17:02.402Z,999.51
2019-05-21T06:18:02.257Z,999.41
2019-05-21T06:19:02.370Z,999.43
2019-05-21T06:20:02.483Z,999.43
2019-05-21T06:21:02.192Z,999.41
2019-05-21T06:22:02.152Z,999.43
2019-05-21T06:23:02.376Z,999.50
2019-05-21T06:24:04.364Z,999.44
2019-05-21T06:25:03.416Z,999.47
2019-05-21T06:26:05.739Z,999.37
2019-05-21T06:27:06.060Z,999.43
2019-05-21T06:28:02.106Z,999.50
2019-05-21T06:29:02.218Z,999.47
2019-05-21T06:30:02.185Z,999.47
2019-05-21T06:31:07.712Z,999.39
2019-05-21T06:32:02.174Z,999.52
2019-05-21T06:33:02.296Z,999.47
2019-05-21T06:34:02.165Z,999.51
2019-05-21T06:35:02.136Z,999.50
2019-05-21T06:36:10.557Z,999.60
2019-05-21T06:37:02.099Z,999.52
2019-05-21T06:38:16.484Z,999.47
2019-05-21T06:39:04.876Z,999.47
2019-05-21T06:40:01.990Z,999.54
2019-05-21T06:41:04.895Z,999.61
2019-05-21T06:42:02.884Z,999.59
2019-05-21T06:43:01.920Z,999.62
2019-05-21T06:44:05.166Z,999.59
2019-05-21T06:45:24.182Z,999.61
2019-05-21T06:46:01.918Z,999.67
2019-05-21T06:47:03.150Z,999.67
2019-05-21T06:49:36.258Z,999.61
2019-05-21T06:50:39.347Z,999.60
2019-05-21T06:51:36.221Z,999.58
2019-05-21T06:52:36.240Z,999.56
2019-05-21T06:53:36.206Z,999.64
2019-05-21T06:54:36.198Z,999.64
2019-05-21T06:55:39.414Z,999.57
2019-05-21T06:56:36.163Z,999.67
2019-05-21T06:57:36.180Z,999.68
2019-05-21T06:58:36.168Z,999.60
2019-05-21T06:59:36.220Z,999.62
2019-05-21T07:00:36.924Z,999.65
2019-05-21T07:01:36.153Z,999.76
2019-05-21T07:02:36.808Z,999.73
2019-05-21T07:03:36.117Z,999.81
2019-05-21T07:04:36.084Z,999.81
2019-05-21T07:05:36.095Z,999.87
2019-05-21T07:06:36.063Z,999.93
2019-05-21T07:07:36.047Z,999.89
2019-05-21T07:08:36.792Z,999.93
2019-05-21T07:09:36.025Z,999.90
2019-05-21T07:10:36.114Z,999.99
2019-05-21T07:11:36.078Z,999.94
2019-05-21T07:12:36.015Z,999.89
2019-05-21T07:13:35.977Z,999.95
2019-05-21T07:14:35.989Z,999.98
2019-05-21T07:15:35.976Z,1000.01
2019-05-21T07:16:39.344Z,1000.02
2019-05-21T07:17:36.238Z,1000.06
2019-05-21T07:18:35.925Z,1000.01
2019-05-21T07:19:35.910Z,1000.06
2019-05-21T07:20:35.905Z,1000.00
2019-05-21T07:21:35.923Z,1000.05
2019-05-21T07:22:36.041Z,999.95
2019-05-21T07:23:35.878Z,999.98
2019-05-21T07:24:35.886Z,1000.05
2019-05-21T07:25:35.854Z,1000.09
2019-05-21T07:26:35.869Z,1000.08
2019-05-21T07:27:35.837Z,1000.10
2019-05-21T07:28:35.824Z,1000.13
2019-05-21T07:29:35.846Z,1000.08
2019-05-21T07:30:35.798Z,1000.16
2019-05-21T07:31:35.800Z,1000.16
2019-05-21T07:32:35.840Z,1000.01
2019-05-21T07:33:35.759Z,1000.10
2019-05-21T07:34:35.765Z,1000.15
2019-05-21T07:35:35.736Z,1000.19
2019-05-21T07:36:35.747Z,1000.19
2019-05-21T07:37:36.280Z,1000.21
2019-05-21T07:38:52.006Z,1000.21
2019-05-21T07:39:36.812Z,1000.15
2019-05-21T07:40:35.723Z,1000.22
2019-05-21T07:41:35.702Z,1000.20
2019-05-21T07:42:35.833Z,1000.14
2019-05-21T07:43:35.705Z,1000.22
2019-05-21T07:44:35.634Z,1000.25
2019-05-21T07:45:35.615Z,1000.24
2019-05-21T07:46:39.613Z,1000.23
2019-05-21T07:47:35.603Z,1000.23
2019-05-21T07:48:35.605Z,1000.26
2019-05-21T07:49:35.571Z,1000.24
2019-05-21T07:50:35.671Z,1000.30
2019-05-21T07:51:43.297Z,1000.25
2019-05-21T07:52:35.556Z,1000.21
2019-05-21T07:53:35.535Z,1000.26
2019-05-21T07:54:35.526Z,1000.26
2019-05-21T07:55:35.529Z,1000.25
2019-05-21T07:56:36.613Z,1000.27
2019-05-21T07:57:35.487Z,1000.35
2019-05-21T07:58:36.292Z,1000.31
2019-05-21T07:59:35.496Z,1000.31
2019-05-21T08:00:35.484Z,1000.29
2019-05-21T08:01:37.343Z,1000.36
2019-05-21T08:02:35.499Z,1000.27
2019-05-21T08:03:35.435Z,1000.31
2019-05-21T08:04:35.461Z,1000.26
2019-05-21T08:05:35.422Z,1000.29
2019-05-21T08:06:36.014Z,1000.41
2019-05-21T08:07:35.403Z,1000.41
2019-05-21T08:08:35.403Z,1000.44
2019-05-21T08:09:35.368Z,1000.43
2019-05-21T08:10:35.422Z,1000.38
2019-05-21T08:11:40.866Z,1000.44
2019-05-21T08:12:39.524Z,1000.43
2019-05-21T08:13:35.322Z,1000.39
2019-05-21T08:14:35.318Z,1000.47
2019-05-21T08:15:36.456Z,1000.43
2019-05-21T08:16:35.329Z,1000.50
2019-05-21T08:17:35.554Z,1000.55
2019-05-21T08:18:35.409Z,1000.56
2019-05-21T08:19:35.277Z,1000.52
2019-05-21T08:20:35.241Z,1000.48
2019-05-21T08:21:35.940Z,1000.63
2019-05-21T08:22:35.221Z,1000.58
2019-05-21T08:23:35.231Z,1000.59
2019-05-21T08:24:35.487Z,1000.57
2019-05-21T08:25:35.186Z,1000.54
2019-05-21T08:26:39.936Z,1000.60
2019-05-21T08:27:35.167Z,1000.53
2019-05-21T08:28:35.163Z,1000.58
2019-05-21T08:29:35.171Z,1000.54
2019-05-21T08:30:35.253Z,1000.60
2019-05-21T08:31:35.224Z,1000.55
2019-05-21T08:32:35.191Z,1000.56
2019-05-21T08:33:35.157Z,1000.58
2019-05-21T08:34:35.093Z,1000.64
2019-05-21T08:35:35.115Z,1000.63
2019-05-21T08:36:38.360Z,1000.60
2019-05-21T08:37:35.875Z,1000.74
2019-05-21T08:38:35.047Z,1000.68
2019-05-21T08:39:35.085Z,1000.70
2019-05-21T08:40:35.146Z,1000.71
2019-05-21T08:41:35.944Z,1000.67
2019-05-21T08:42:34.989Z,1000.64
2019-05-21T08:43:35.168Z,1000.64
2019-05-21T08:44:34.970Z,1000.69
2019-05-21T08:45:35.066Z,1000.71
2019-05-21T08:46:43.518Z,1000.67
2019-05-21T08:47:34.944Z,1000.72
2019-05-21T08:48:34.946Z,1000.68
2019-05-21T08:49:34.919Z,1000.69
2019-05-21T08:50:34.907Z,1000.67
2019-05-21T08:51:58.839Z,1000.76
2019-05-21T08:52:34.938Z,1000.78
2019-05-21T08:53:34.937Z,1000.75
2019-05-21T08:54:34.998Z,1000.80
2019-05-21T08:55:34.946Z,1000.75
2019-05-21T08:56:38.323Z,1000.65
2019-05-21T08:57:34.933Z,1000.75
2019-05-21T08:58:34.866Z,1000.74
2019-05-21T08:59:34.808Z,1000.78
2019-05-21T09:00:34.789Z,1000.79
2019-05-21T09:01:50.461Z,1000.68
2019-05-21T09:02:35.168Z,1000.74
2019-05-21T09:03:36.371Z,1000.73
2019-05-21T09:04:45.795Z,1000.76
2019-05-21T09:05:35.768Z,1000.72
2019-05-21T09:06:42.968Z,1000.77
2019-05-21T09:07:34.711Z,1000.81
2019-05-21T09:08:34.736Z,1000.75
2019-05-21T09:09:49.420Z,1000.83
2019-05-21T09:10:35.693Z,1000.81
2019-05-21T09:11:37.819Z,1000.67
2019-05-21T09:12:34.643Z,1000.77
2019-05-21T09:13:34.680Z,1000.74
2019-05-21T09:14:34.631Z,1000.65
2019-05-21T09:15:34.998Z,1000.75
2019-05-21T09:16:44.836Z,1000.77
2019-05-21T09:17:35.328Z,1000.63
2019-05-21T09:18:34.577Z,1000.76
2019-05-21T09:19:36.618Z,1000.85
2019-05-21T09:20:34.768Z,1000.84
2019-05-21T09:21:40.514Z,1000.75
2019-05-21T09:22:34.572Z,1000.76
2019-05-21T09:23:34.618Z,1000.81
2019-05-21T09:24:35.587Z,1000.78
2019-05-21T09:25:34.576Z,1000.80
2019-05-21T09:26:34.546Z,1000.76
2019-05-21T09:27:34.525Z,1000.88
2019-05-21T09:28:34.529Z,1000.80
2019-05-21T09:29:34.505Z,1000.76
2019-05-21T09:30:34.541Z,1000.99
2019-05-21T09:31:55.672Z,1000.90
2019-05-21T09:32:34.479Z,1000.78
2019-05-21T09:33:34.440Z,1000.82
2019-05-21T09:34:47.956Z,1000.96
2019-05-21T09:35:35.421Z,1001.01
2019-05-21T09:36:56.445Z,1000.97
2019-05-21T09:37:34.386Z,1000.92
2019-05-21T09:38:34.356Z,1001.09
2019-05-21T09:39:34.574Z,1001.04
2019-05-21T09:40:34.331Z,1000.92
2019-05-21T09:41:43.004Z,1000.99
2019-05-21T09:42:34.320Z,1001.06
2019-05-21T09:43:34.433Z,1001.04
2019-05-21T09:44:34.352Z,1001.06
2019-05-21T09:45:34.282Z,1001.10
2019-05-21T09:46:42.450Z,1001.13
2019-05-21T09:47:34.424Z,1001.10
2019-05-21T09:48:34.243Z,1001.05
2019-05-21T09:49:34.224Z,1001.05
2019-05-21T09:50:34.403Z,1001.09
2019-05-21T09:51:34.249Z,1001.03
2019-05-21T09:52:34.245Z,1001.00
2019-05-21T09:53:34.635Z,1001.09
2019-05-21T09:54:34.211Z,1000.91
2019-05-21T09:55:34.324Z,1001.00
2019-05-21T09:56:35.995Z,1001.05
2019-05-21T09:57:34.152Z,1000.99
2019-05-21T09:58:34.160Z,1001.03
2019-05-21T09:59:34.132Z,1001.08
2019-05-21T10:00:34.137Z,1001.06
2019-05-21T10:01:35.812Z,1001.15
2019-05-21T10:02:34.097Z,1001.10
2019-05-21T10:03:34.075Z,1001.23
2019-05-21T10:04:35.006Z,1001.15
2019-05-21T10:05:34.843Z,1001.08
2019-05-21T10:06:35.145Z,1001.24
2019-05-21T10:07:39.779Z,1001.20
2019-05-21T10:08:37.230Z,1001.04
2019-05-21T10:09:34.766Z,1001.17
2019-05-21T10:10:34.163Z,1001.16
2019-05-21T10:11:36.017Z,1001.25
2019-05-21T10:12:34.229Z,1001.30
2019-05-21T10:13:34.016Z,1001.28
2019-05-21T10:14:34.511Z,1001.25
2019-05-21T10:15:34.018Z,1001.27
2019-05-21T10:16:34.058Z,1001.23
2019-05-21T10:17:35.478Z,1001.17
2019-05-21T10:18:33.975Z,1001.29
2019-05-21T10:19:34.022Z,1001.27
2019-05-21T10:20:34.237Z,1001.27
2019-05-21T10:21:33.936Z,1001.21
2019-05-21T10:22:33.930Z,1001.20
2019-05-21T10:23:33.918Z,1001.28
2019-05-21T10:24:34.122Z,1001.26
2019-05-21T10:25:34.041Z,1001.32
2019-05-21T10:26:33.917Z,1001.27
2019-05-21T10:27:37.011Z,1001.19
2019-05-21T10:28:34.314Z,1001.26
2019-05-21T10:29:33.825Z,1001.33
2019-05-21T10:30:34.043Z,1001.29
2019-05-21T10:31:33.791Z,1001.37
2019-05-21T10:32:33.784Z,1001.36
2019-05-21T10:33:33.821Z,1001.41
2019-05-21T10:34:36.452Z,1001.37
2019-05-21T10:35:34.475Z,1001.40
2019-05-21T10:36:33.837Z,1001.41
2019-05-21T10:37:33.737Z,1001.41
2019-05-21T10:38:33.755Z,1001.37
2019-05-21T10:39:33.676Z,1001.37
2019-05-21T10:40:33.668Z,1001.47
2019-05-21T10:41:33.664Z,1001.40
2019-05-21T10:42:34.492Z,1001.44
2019-05-21T10:43:33.627Z,1001.41
2019-05-21T10:44:33.614Z,1001.39
2019-05-21T10:45:34.887Z,1001.33
2019-05-21T10:46:33.678Z,1001.44
2019-05-21T10:47:33.626Z,1001.38
2019-05-21T10:48:34.472Z,1001.35
2019-05-21T10:49:33.557Z,1001.40
2019-05-21T10:50:33.584Z,1001.44
2019-05-21T10:51:34.362Z,1001.48
2019-05-21T10:52:33.582Z,1001.47
2019-05-21T10:53:33.554Z,1001.45
2019-05-21T10:54:34.313Z,1001.56
2019-05-21T10:55:33.565Z,1001.46
2019-05-21T10:56:46.761Z,1001.54
2019-05-21T10:57:34.925Z,1001.52
2019-05-21T10:58:33.474Z,1001.57
2019-05-21T10:59:33.502Z,1001.59
2019-05-21T11:00:33.500Z,1001.64
2019-05-21T11:01:34.420Z,1001.52
2019-05-21T11:02:33.475Z,1001.57
2019-05-21T11:03:33.411Z,1001.64
2019-05-21T11:04:33.520Z,1001.70
2019-05-21T11:05:33.440Z,1001.67
2019-05-21T11:06:33.427Z,1001.66
2019-05-21T11:07:33.659Z,1001.68
2019-05-21T11:08:33.386Z,1001.73
2019-05-21T11:09:33.374Z,1001.76
2019-05-21T11:10:33.454Z,1001.76
2019-05-21T11:11:33.463Z,1001.76
2019-05-21T11:12:33.334Z,1001.76
2019-05-21T11:13:33.305Z,1001.70
2019-05-21T11:14:33.639Z,1001.76
2019-05-21T11:15:33.272Z,1001.78
2019-05-21T11:16:33.310Z,1001.77
2019-05-21T11:17:48.313Z,1001.78
2019-05-21T11:18:34.252Z,1001.83
2019-05-21T11:19:33.235Z,1001.77
2019-05-21T11:20:33.212Z,1001.83
2019-05-21T11:21:33.499Z,1001.75
2019-05-21T11:22:33.649Z,1001.79
2019-05-21T11:23:33.587Z,1001.75
2019-05-21T11:24:33.303Z,1001.82
2019-05-21T11:25:33.198Z,1001.88
2019-05-21T11:26:33.148Z,1001.88
2019-05-21T11:27:33.179Z,1001.92
2019-05-21T11:28:33.133Z,1001.94
2019-05-21T11:29:33.125Z,1001.97
2019-05-21T11:30:33.253Z,1001.98
2019-05-21T11:31:33.098Z,1001.87
2019-05-21T11:32:33.104Z,1002.02
2019-05-21T11:33:33.075Z,1001.92
2019-05-21T11:34:33.115Z,1002.00
2019-05-21T11:35:35.961Z,1001.98
2019-05-21T11:36:33.037Z,1001.99
2019-05-21T11:37:33.979Z,1002.00
2019-05-21T11:38:40.084Z,1002.04
2019-05-21T11:39:34.017Z,1001.99
2019-05-21T11:40:33.019Z,1002.02
2019-05-21T11:41:32.991Z,1002.03
2019-05-21T11:42:32.994Z,1002.04
2019-05-21T11:43:32.952Z,1002.01
2019-05-21T11:44:32.959Z,1002.00
2019-05-21T11:45:33.289Z,1002.05
2019-05-21T11:46:32.925Z,1002.09
2019-05-21T11:47:32.935Z,1002.07
2019-05-21T11:48:32.957Z,1002.02
2019-05-21T11:49:32.902Z,1002.03
2019-05-21T11:50:32.886Z,1002.07
2019-05-21T11:51:32.864Z,1002.08
2019-05-21T11:52:34.520Z,1002.07
2019-05-21T11:53:32.842Z,1002.05
2019-05-21T11:54:32.872Z,1002.07
2019-05-21T11:55:32.832Z,1002.06
2019-05-21T11:56:36.083Z,1002.15
2019-05-21T11:57:32.846Z,1002.04
2019-05-21T11:58:39.285Z,1002.14
2019-05-21T11:59:33.801Z,1002.11
2019-05-21T12:00:32.769Z,1002.19
2019-05-21T12:01:32.886Z,1002.15
2019-05-21T12:02:32.818Z,1002.15
2019-05-21T12:03:32.780Z,1002.24
2019-05-21T12:04:32.748Z,1002.07
2019-05-21T12:05:32.766Z,1002.24
2019-05-21T12:06:32.703Z,1002.12
2019-05-21T12:07:32.796Z,1002.23
2019-05-21T12:08:32.692Z,1002.29
2019-05-21T12:09:32.671Z,1002.26
2019-05-21T12:10:32.654Z,1002.40
2019-05-21T12:11:32.644Z,1002.28
2019-05-21T12:12:32.670Z,1002.29
2019-05-21T12:13:32.701Z,1002.25
2019-05-21T12:14:32.630Z,1002.27
2019-05-21T12:15:32.696Z,1002.31
2019-05-21T12:16:32.596Z,1002.33
2019-05-21T12:17:32.654Z,1002.27
2019-05-21T12:18:32.578Z,1002.37
2019-05-21T12:19:32.572Z,1002.30
2019-05-21T12:20:36.810Z,1002.32